Panda — PBCS — position and weather

sailwx.info

Track history (hours):
 
Tides and Currents Weather Stations Pressure Air Temp Water Temp Dewpoint Dewpoint Depression Visibility Wind Speed Wind Dir Waves Ship Positions

Panda

Last reported at 2015-Mar-29 14:33 UTC. Time now 2015-Mar-29 23:50 UTC.
Position N 53°32' E 004°56'.

Length 89 m; draft 4.4 m.

Type: Cargo ship. MMSI: 245014000.

Date/timePositionNaut miles runAvg speedWind from/ knotsBaromVisibWave heightAir tempDewpointWater temp
2015-Mar-29 14:33N 53°32' E 004°56'11 7.4
2015-Mar-29 13:05N 53°36' E 005°13'4 7.4
2015-Mar-29 12:33N 53°37' E 005°20'7 7.5
2015-Mar-29 11:33N 53°39' E 005°31'8 8.0
2015-Mar-29 10:33N 53°42' E 005°44'9 8.3
2015-Mar-29 09:30N 53°45' E 005°58'50 8.1
2015-Mar-29 03:19N 53°57' E 007°20'6 7.4
2015-Mar-29 02:33N 53°58' E 007°29'7 6.8
2015-Mar-29 01:33N 53°58' E 007°41'7 7.6
2015-Mar-29 00:33N 53°53' E 007°50'9 8.9
2015-Mar-28 23:33N 53°50' E 008°04'1110.8
2015-Mar-28 22:33N 53°43' E 008°18'1212.3
2015-Mar-28 21:33N 53°34' E 008°32'1110.8
2015-Mar-28 20:33N 53°23' E 008°30'2 1.9
2015-Mar-28 19:26N 53°21' E 008°30'0 0.0
2015-Mar-28 16:10N 53°21' E 008°30'0 0.0
2015-Mar-28 15:10N 53°21' E 008°30'0 0.0
2015-Mar-28 14:10N 53°21' E 008°30'0 0.0
2015-Mar-28 13:10N 53°21' E 008°30'0 0.0
2015-Mar-28 12:05N 53°21' E 008°30'0 0.0
2015-Mar-28 11:14N 53°21' E 008°30'0 0.0
2015-Mar-28 10:23N 53°21' E 008°30'0 0.0
2015-Mar-28 09:32N 53°21' E 008°30'0 0.0
2015-Mar-28 08:32N 53°21' E 008°30'0 0.0
2015-Mar-28 07:32N 53°21' E 008°30'0 0.0
2015-Mar-28 06:26N 53°21' E 008°30'0 0.0
2015-Mar-28 05:26N 53°21' E 008°30'0 0.0
2015-Mar-28 04:32N 53°21' E 008°30'3 3.0
2015-Mar-28 03:33N 53°24' E 008°30'7 6.6
2015-Mar-28 02:30N 53°31' E 008°33'0 0.0
2015-Mar-28 01:33N 53°31' E 008°33'0 0.1
2015-Mar-28 00:30N 53°31' E 008°33'0 0.0
2015-Mar-27 23:33N 53°31' E 008°33'0 0.0
2015-Mar-27 22:30N 53°31' E 008°33'0 0.0
2015-Mar-27 21:33N 53°31' E 008°33'0 0.0
2015-Mar-27 20:30N 53°31' E 008°33'0 0.0
2015-Mar-27 19:32N 53°31' E 008°33'0 0.0
2015-Mar-27 18:32N 53°31' E 008°33'0 0.1
2015-Mar-27 17:32N 53°31' E 008°33'0 0.1
2015-Mar-27 16:32N 53°31' E 008°33'0 0.0
2015-Mar-27 15:32N 53°31' E 008°33'0 0.0
2015-Mar-27 14:29N 53°31' E 008°33'0 0.0
2015-Mar-27 13:29N 53°31' E 008°33'0 0.1
2015-Mar-27 12:32N 53°31' E 008°33'0 0.1
2015-Mar-27 11:26N 53°31' E 008°33'0 0.0
2015-Mar-27 10:32N 53°31' E 008°33'0 0.0
2015-Mar-27 09:29N 53°31' E 008°33'0 0.0
2015-Mar-27 08:32N 53°31' E 008°33'0 0.0
2015-Mar-27 07:32N 53°31' E 008°33'0 0.0
2015-Mar-27 06:32N 53°31' E 008°33'0 0.1
2015-Mar-27 05:32N 53°31' E 008°33'0 0.0
2015-Mar-27 04:32N 53°31' E 008°33'0 0.0
2015-Mar-27 03:32N 53°31' E 008°33'0 0.0
2015-Mar-27 02:32N 53°31' E 008°33'0 0.0
2015-Mar-27 01:32N 53°31' E 008°33'0 0.1
2015-Mar-27 00:29N 53°31' E 008°33'0 0.1
2015-Mar-26 23:32N 53°31' E 008°33'0 0.0
2015-Mar-26 22:32N 53°31' E 008°33'0 0.0
2015-Mar-26 21:29N 53°31' E 008°33'0 0.0
2015-Mar-26 20:23N 53°31' E 008°33'0 0.0
2015-Mar-26 19:32N 53°31' E 008°33'0 0.0
2015-Mar-26 18:32N 53°31' E 008°33'0 0.0
2015-Mar-26 17:32N 53°31' E 008°33'0 0.1
2015-Mar-26 16:33N 53°31' E 008°33'7 7.5
2015-Mar-26 15:33N 53°38' E 008°27'1211.6
2015-Mar-26 14:33N 53°45' E 008°12'1111.1
2015-Mar-26 13:33N 53°51' E 007°57'1111.3
2015-Mar-26 12:33N 53°53' E 007°38'1111.3
2015-Mar-26 11:33N 53°52' E 007°19'51 9.5
2015-Mar-26 06:08N 53°50' E 005°52'5 9.1
2015-Mar-26 05:33N 53°50' E 005°43'9 9.1
2015-Mar-26 04:33N 53°50' E 005°27'9 9.3
2015-Mar-26 03:33N 53°49' E 005°12'170 9.8
2015-Mar-25 10:15N 53°34' E 000°25'3 4.0
2015-Mar-25 09:30N 53°37' E 000°22'0 0.0
2015-Mar-25 08:30N 53°37' E 000°22'0 0.0
2015-Mar-25 07:15N 53°37' E 000°22'0 0.0
2015-Mar-25 06:30N 53°37' E 000°22'0 0.0
2015-Mar-25 05:15N 53°37' E 000°22'0 0.0
2015-Mar-25 04:33N 53°37' E 000°22'0 0.1
2015-Mar-25 03:24N 53°37' E 000°22'0 0.0
2015-Mar-25 02:33N 53°37' E 000°22'0 0.0
2015-Mar-25 01:24N 53°37' E 000°22'0 0.0
2015-Mar-25 00:24N 53°37' E 000°22'0 0.0
2015-Mar-24 23:27N 53°37' E 000°22'0 0.1
2015-Mar-24 22:24N 53°37' E 000°22'0 0.1
2015-Mar-24 21:21N 53°37' E 000°22'0 0.0
2015-Mar-24 20:21N 53°37' E 000°22'0 0.0
2015-Mar-24 19:33N 53°37' E 000°22'0 0.0
2015-Mar-24 18:33N 53°37' E 000°22'0 0.0
2015-Mar-24 17:33N 53°37' E 000°22'0 0.0
2015-Mar-24 16:24N 53°37' E 000°22'0 0.1
2015-Mar-24 15:32N 53°37' E 000°22'0 0.1
2015-Mar-24 14:26N 53°37' E 000°22'0 0.0
2015-Mar-24 13:26N 53°37' E 000°22'0 0.0
2015-Mar-24 12:32N 53°37' E 000°22'0 0.0
2015-Mar-24 10:32N 53°37' E 000°22'0 0.1
2015-Mar-24 09:32N 53°37' E 000°22'0 0.0
2015-Mar-24 08:26N 53°37' E 000°22'0 0.0
2015-Mar-24 07:29N 53°37' E 000°22'0 0.0
2015-Mar-24 06:26N 53°37' E 000°22'0 0.0
2015-Mar-24 05:29N 53°37' E 000°22'0 0.0
2015-Mar-24 04:29N 53°37' E 000°22'0 0.1
2015-Mar-24 03:29N 53°37' E 000°22'0 0.1
2015-Mar-24 02:32N 53°37' E 000°22'0 0.0
2015-Mar-24 01:18N 53°37' E 000°22'7 8.7
2015-Mar-24 00:33N 53°33' E 000°14'1312.8
2015-Mar-23 23:34N 53°37' W 000°07'1212.0
2015-Mar-23 22:34N 53°42' W 000°25'3 0.1
2015-Mar-22 18:03N 53°42' W 000°29'5 9.7
2015-Mar-22 17:33N 53°43' W 000°21'8 8.3
2015-Mar-22 16:33N 53°38' W 000°09'1111.1
2015-Mar-22 15:34N 53°34' E 000°08'8 8.2
2015-Mar-22 14:33N 53°33' E 000°21'164 9.6
2015-Mar-21 21:33N 53°49' E 004°57'9 8.7
2015-Mar-21 20:32N 53°50' E 005°12'8 8.2
2015-Mar-21 19:32N 53°50' E 005°26'8 8.2
2015-Mar-21 18:33N 53°51' E 005°39'6210.0
2015-Mar-21 12:18N 53°59' E 007°24'7 9.7
2015-Mar-21 11:33N 54°01' E 007°36'9 9.1
2015-Mar-21 10:33N 54°01' E 007°52'9 8.8
2015-Mar-21 09:33N 54°01' E 008°07'8 8.3
2015-Mar-21 08:33N 54°00' E 008°21'10 9.5
2015-Mar-21 07:32N 53°58' E 008°37'1212.4
2015-Mar-21 06:33N 53°51' E 008°53'10 9.7
2015-Mar-21 05:34N 53°54' E 009°09'1 1.1
2015-Mar-21 04:34N 53°54' E 009°10'6 6.0
2015-Mar-21 03:33N 53°59' E 009°17'23 7.4
2015-Mar-21 00:26N 54°18' E 009°40'14 6.0
2015-Mar-20 22:03N 54°22' E 010°04'0 0.9
2015-Mar-20 21:34N 54°22' E 010°04'3 2.7
2015-Mar-20 20:34N 54°22' E 010°09'7 7.4
2015-Mar-20 19:34N 54°28' E 010°15'1110.0
2015-Mar-20 18:27N 54°34' E 010°32'2210.2
2015-Mar-20 16:19N 54°36' E 011°09'810.9
2015-Mar-20 15:33N 54°33' E 011°23'1010.2
2015-Mar-20 14:34N 54°30' E 011°39'1010.0
2015-Mar-20 13:33N 54°27' E 011°56'78 7.8
2015-Mar-20 03:30N 54°16' E 014°09'9 9.5
2015-Mar-20 02:34N 54°08' E 014°14'10 9.8
2015-Mar-20 01:34N 53°58' E 014°16'8 8.3
2015-Mar-20 00:33N 53°50' E 014°19'1010.5
2015-Mar-19 23:33N 53°41' E 014°30'11 8.5
2015-Mar-19 22:19N 53°32' E 014°38'  
Track history (hours):
 
Tides and Currents Weather Stations Pressure Air Temp Water Temp Dewpoint Dewpoint Depression Visibility Wind Speed Wind Dir Waves Ship Positions

Panda

Last reported at 2015-Mar-29 14:33 UTC. Time now 2015-Mar-29 23:50 UTC.
Position N 53°32' E 004°56'.

Length 89 m; draft 4.4 m.

Type: Cargo ship. MMSI: 245014000.

Date/timePositionNaut miles runAvg speedWind from/ knotsBaromVisibWave heightAir tempDewpointWater temp
2015-Mar-29 14:33N 53°32' E 004°56'11 7.4
2015-Mar-29 13:05N 53°36' E 005°13'4 7.4
2015-Mar-29 12:33N 53°37' E 005°20'7 7.5
2015-Mar-29 11:33N 53°39' E 005°31'8 8.0
2015-Mar-29 10:33N 53°42' E 005°44'9 8.3
2015-Mar-29 09:30N 53°45' E 005°58'50 8.1
2015-Mar-29 03:19N 53°57' E 007°20'6 7.4
2015-Mar-29 02:33N 53°58' E 007°29'7 6.8
2015-Mar-29 01:33N 53°58' E 007°41'7 7.6
2015-Mar-29 00:33N 53°53' E 007°50'9 8.9
2015-Mar-28 23:33N 53°50' E 008°04'1110.8
2015-Mar-28 22:33N 53°43' E 008°18'1212.3
2015-Mar-28 21:33N 53°34' E 008°32'1110.8
2015-Mar-28 20:33N 53°23' E 008°30'2 1.9
2015-Mar-28 19:26N 53°21' E 008°30'0 0.0
2015-Mar-28 16:10N 53°21' E 008°30'0 0.0
2015-Mar-28 15:10N 53°21' E 008°30'0 0.0
2015-Mar-28 14:10N 53°21' E 008°30'0 0.0
2015-Mar-28 13:10N 53°21' E 008°30'0 0.0
2015-Mar-28 12:05N 53°21' E 008°30'0 0.0
2015-Mar-28 11:14N 53°21' E 008°30'0 0.0
2015-Mar-28 10:23N 53°21' E 008°30'0 0.0
2015-Mar-28 09:32N 53°21' E 008°30'0 0.0
2015-Mar-28 08:32N 53°21' E 008°30'0 0.0
2015-Mar-28 07:32N 53°21' E 008°30'0 0.0
2015-Mar-28 06:26N 53°21' E 008°30'0 0.0
2015-Mar-28 05:26N 53°21' E 008°30'0 0.0
2015-Mar-28 04:32N 53°21' E 008°30'3 3.0
2015-Mar-28 03:33N 53°24' E 008°30'7 6.6
2015-Mar-28 02:30N 53°31' E 008°33'0 0.0
2015-Mar-28 01:33N 53°31' E 008°33'0 0.1
2015-Mar-28 00:30N 53°31' E 008°33'0 0.0
2015-Mar-27 23:33N 53°31' E 008°33'0 0.0
2015-Mar-27 22:30N 53°31' E 008°33'0 0.0
2015-Mar-27 21:33N 53°31' E 008°33'0 0.0
2015-Mar-27 20:30N 53°31' E 008°33'0 0.0
2015-Mar-27 19:32N 53°31' E 008°33'0 0.0
2015-Mar-27 18:32N 53°31' E 008°33'0 0.1
2015-Mar-27 17:32N 53°31' E 008°33'0 0.1
2015-Mar-27 16:32N 53°31' E 008°33'0 0.0
2015-Mar-27 15:32N 53°31' E 008°33'0 0.0
2015-Mar-27 14:29N 53°31' E 008°33'0 0.0
2015-Mar-27 13:29N 53°31' E 008°33'0 0.1
2015-Mar-27 12:32N 53°31' E 008°33'0 0.1
2015-Mar-27 11:26N 53°31' E 008°33'0 0.0
2015-Mar-27 10:32N 53°31' E 008°33'0 0.0
2015-Mar-27 09:29N 53°31' E 008°33'0 0.0
2015-Mar-27 08:32N 53°31' E 008°33'0 0.0
2015-Mar-27 07:32N 53°31' E 008°33'0 0.0
2015-Mar-27 06:32N 53°31' E 008°33'0 0.1
2015-Mar-27 05:32N 53°31' E 008°33'0 0.0
2015-Mar-27 04:32N 53°31' E 008°33'0 0.0
2015-Mar-27 03:32N 53°31' E 008°33'0 0.0
2015-Mar-27 02:32N 53°31' E 008°33'0 0.0
2015-Mar-27 01:32N 53°31' E 008°33'0 0.1
2015-Mar-27 00:29N 53°31' E 008°33'0 0.1
2015-Mar-26 23:32N 53°31' E 008°33'0 0.0
2015-Mar-26 22:32N 53°31' E 008°33'0 0.0
2015-Mar-26 21:29N 53°31' E 008°33'0 0.0
2015-Mar-26 20:23N 53°31' E 008°33'0 0.0
2015-Mar-26 19:32N 53°31' E 008°33'0 0.0
2015-Mar-26 18:32N 53°31' E 008°33'0 0.0
2015-Mar-26 17:32N 53°31' E 008°33'0 0.1
2015-Mar-26 16:33N 53°31' E 008°33'7 7.5
2015-Mar-26 15:33N 53°38' E 008°27'1211.6
2015-Mar-26 14:33N 53°45' E 008°12'1111.1
2015-Mar-26 13:33N 53°51' E 007°57'1111.3
2015-Mar-26 12:33N 53°53' E 007°38'1111.3
2015-Mar-26 11:33N 53°52' E 007°19'51 9.5
2015-Mar-26 06:08N 53°50' E 005°52'5 9.1
2015-Mar-26 05:33N 53°50' E 005°43'9 9.1
2015-Mar-26 04:33N 53°50' E 005°27'9 9.3
2015-Mar-26 03:33N 53°49' E 005°12'170 9.8
2015-Mar-25 10:15N 53°34' E 000°25'3 4.0
2015-Mar-25 09:30N 53°37' E 000°22'0 0.0
2015-Mar-25 08:30N 53°37' E 000°22'0 0.0
2015-Mar-25 07:15N 53°37' E 000°22'0 0.0
2015-Mar-25 06:30N 53°37' E 000°22'0 0.0
2015-Mar-25 05:15N 53°37' E 000°22'0 0.0
2015-Mar-25 04:33N 53°37' E 000°22'0 0.1
2015-Mar-25 03:24N 53°37' E 000°22'0 0.0
2015-Mar-25 02:33N 53°37' E 000°22'0 0.0
2015-Mar-25 01:24N 53°37' E 000°22'0 0.0
2015-Mar-25 00:24N 53°37' E 000°22'0 0.0
2015-Mar-24 23:27N 53°37' E 000°22'0 0.1
2015-Mar-24 22:24N 53°37' E 000°22'0 0.1
2015-Mar-24 21:21N 53°37' E 000°22'0 0.0
2015-Mar-24 20:21N 53°37' E 000°22'0 0.0
2015-Mar-24 19:33N 53°37' E 000°22'0 0.0
2015-Mar-24 18:33N 53°37' E 000°22'0 0.0
2015-Mar-24 17:33N 53°37' E 000°22'0 0.0
2015-Mar-24 16:24N 53°37' E 000°22'0 0.1
2015-Mar-24 15:32N 53°37' E 000°22'0 0.1
2015-Mar-24 14:26N 53°37' E 000°22'0 0.0
2015-Mar-24 13:26N 53°37' E 000°22'0 0.0
2015-Mar-24 12:32N 53°37' E 000°22'0 0.0
2015-Mar-24 10:32N 53°37' E 000°22'0 0.1
2015-Mar-24 09:32N 53°37' E 000°22'0 0.0
2015-Mar-24 08:26N 53°37' E 000°22'0 0.0
2015-Mar-24 07:29N 53°37' E 000°22'0 0.0
2015-Mar-24 06:26N 53°37' E 000°22'0 0.0
2015-Mar-24 05:29N 53°37' E 000°22'0 0.0
2015-Mar-24 04:29N 53°37' E 000°22'0 0.1
2015-Mar-24 03:29N 53°37' E 000°22'0 0.1
2015-Mar-24 02:32N 53°37' E 000°22'0 0.0
2015-Mar-24 01:18N 53°37' E 000°22'7 8.7
2015-Mar-24 00:33N 53°33' E 000°14'1312.8
2015-Mar-23 23:34N 53°37' W 000°07'1212.0
2015-Mar-23 22:34N 53°42' W 000°25'3 0.1
2015-Mar-22 18:03N 53°42' W 000°29'5 9.7
2015-Mar-22 17:33N 53°43' W 000°21'8 8.3
2015-Mar-22 16:33N 53°38' W 000°09'1111.1
2015-Mar-22 15:34N 53°34' E 000°08'8 8.2
2015-Mar-22 14:33N 53°33' E 000°21'164 9.6
2015-Mar-21 21:33N 53°49' E 004°57'9 8.7
2015-Mar-21 20:32N 53°50' E 005°12'8 8.2
2015-Mar-21 19:32N 53°50' E 005°26'8 8.2
2015-Mar-21 18:33N 53°51' E 005°39'6210.0
2015-Mar-21 12:18N 53°59' E 007°24'7 9.7
2015-Mar-21 11:33N 54°01' E 007°36'9 9.1
2015-Mar-21 10:33N 54°01' E 007°52'9 8.8
2015-Mar-21 09:33N 54°01' E 008°07'8 8.3
2015-Mar-21 08:33N 54°00' E 008°21'10 9.5
2015-Mar-21 07:32N 53°58' E 008°37'1212.4
2015-Mar-21 06:33N 53°51' E 008°53'10 9.7
2015-Mar-21 05:34N 53°54' E 009°09'1 1.1
2015-Mar-21 04:34N 53°54' E 009°10'6 6.0
2015-Mar-21 03:33N 53°59' E 009°17'23 7.4
2015-Mar-21 00:26N 54°18' E 009°40'14 6.0
2015-Mar-20 22:03N 54°22' E 010°04'0 0.9
2015-Mar-20 21:34N 54°22' E 010°04'3 2.7
2015-Mar-20 20:34N 54°22' E 010°09'7 7.4
2015-Mar-20 19:34N 54°28' E 010°15'1110.0
2015-Mar-20 18:27N 54°34' E 010°32'2210.2
2015-Mar-20 16:19N 54°36' E 011°09'810.9
2015-Mar-20 15:33N 54°33' E 011°23'1010.2
2015-Mar-20 14:34N 54°30' E 011°39'1010.0
2015-Mar-20 13:33N 54°27' E 011°56'78 7.8
2015-Mar-20 03:30N 54°16' E 014°09'9 9.5
2015-Mar-20 02:34N 54°08' E 014°14'10 9.8
2015-Mar-20 01:34N 53°58' E 014°16'8 8.3
2015-Mar-20 00:33N 53°50' E 014°19'1010.5
2015-Mar-19 23:33N 53°41' E 014°30'11 8.5
2015-Mar-19 22:19N 53°32' E 014°38'  

Dump ship's entire track history